sensor_id;sensor_type;location;lat;lon;timestamp;temperature;humidity
41882;DHT22;27562;47.524;12.404;2023-03-05T00:01:13;0.40;99.90
41882;DHT22;27562;47.524;12.404;2023-03-05T00:03:39;0.50;99.90
41882;DHT22;27562;47.524;12.404;2023-03-05T00:06:05;0.50;99.90
41882;DHT22;27562;47.524;12.404;2023-03-05T00:08:31;0.50;99.90
41882;DHT22;27562;47.524;12.404;2023-03-05T00:11:14;0.50;99.90
41882;DHT22;27562;47.524;12.404;2023-03-05T00:13:40;0.50;99.90
41882;DHT22;27562;47.524;12.404;2023-03-05T00:16:11;0.40;99.90
41882;DHT22;27562;47.524;12.404;2023-03-05T00:18:37;0.40;99.90
41882;DHT22;27562;47.524;12.404;2023-03-05T00:21:03;0.40;99.90
41882;DHT22;27562;47.524;12.404;2023-03-05T00:23:29;0.30;99.90
41882;DHT22;27562;47.524;12.404;2023-03-05T00:25:55;0.30;99.90
41882;DHT22;27562;47.524;12.404;2023-03-05T00:28:21;0.30;99.90
41882;DHT22;27562;47.524;12.404;2023-03-05T00:30:46;0.30;99.90
41882;DHT22;27562;47.524;12.404;2023-03-05T00:33:12;0.30;99.90
41882;DHT22;27562;47.524;12.404;2023-03-05T00:35:42;0.30;99.90
41882;DHT22;27562;47.524;12.404;2023-03-05T00:38:08;0.30;99.90
41882;DHT22;27562;47.524;12.404;2023-03-05T00:40:34;0.30;99.90
41882;DHT22;27562;47.524;12.404;2023-03-05T00:43:00;0.20;99.90
41882;DHT22;27562;47.524;12.404;2023-03-05T00:45:26;0.20;99.90
41882;DHT22;27562;47.524;12.404;2023-03-05T00:47:51;0.20;99.90
41882;DHT22;27562;47.524;12.404;2023-03-05T00:50:17;0.30;99.90
41882;DHT22;27562;47.524;12.404;2023-03-05T00:52:42;0.30;99.90
41882;DHT22;27562;47.524;12.404;2023-03-05T00:55:08;0.40;99.90
41882;DHT22;27562;47.524;12.404;2023-03-05T00:57:34;0.40;99.90
41882;DHT22;27562;47.524;12.404;2023-03-05T00:59:59;0.50;99.90
41882;DHT22;27562;47.524;12.404;2023-03-05T01:02:25;0.50;99.90
41882;DHT22;27562;47.524;12.404;2023-03-05T01:04:50;0.50;99.90
41882;DHT22;27562;47.524;12.404;2023-03-05T01:07:16;0.50;99.90
41882;DHT22;27562;47.524;12.404;2023-03-05T01:09:42;0.50;99.90
41882;DHT22;27562;47.524;12.404;2023-03-05T01:12:07;0.50;99.90
41882;DHT22;27562;47.524;12.404;2023-03-05T01:14:33;0.60;99.90
41882;DHT22;27562;47.524;12.404;2023-03-05T01:17:00;0.60;99.90
41882;DHT22;27562;47.524;12.404;2023-03-05T01:19:25;0.60;99.90
41882;DHT22;27562;47.524;12.404;2023-03-05T01:21:51;0.60;99.90
41882;DHT22;27562;47.524;12.404;2023-03-05T01:24:17;0.50;99.90
41882;DHT22;27562;47.524;12.404;2023-03-05T01:26:42;0.50;99.90
41882;DHT22;27562;47.524;12.404;2023-03-05T01:29:08;0.40;99.90
41882;DHT22;27562;47.524;12.404;2023-03-05T01:31:34;0.40;99.90
41882;DHT22;27562;47.524;12.404;2023-03-05T01:34:00;0.40;99.90
41882;DHT22;27562;47.524;12.404;2023-03-05T01:36:25;0.40;99.90
41882;DHT22;27562;47.524;12.404;2023-03-05T01:38:51;0.50;99.90
41882;DHT22;27562;47.524;12.404;2023-03-05T01:41:17;0.50;99.90
41882;DHT22;27562;47.524;12.404;2023-03-05T01:43:45;0.40;99.90
41882;DHT22;27562;47.524;12.404;2023-03-05T01:48:38;0.30;99.90
41882;DHT22;27562;47.524;12.404;2023-03-05T01:51:04;0.40;99.90
41882;DHT22;27562;47.524;12.404;2023-03-05T01:53:30;0.30;99.90
41882;DHT22;27562;47.524;12.404;2023-03-05T01:55:56;0.30;99.90
41882;DHT22;27562;47.524;12.404;2023-03-05T01:58:21;0.30;99.90
41882;DHT22;27562;47.524;12.404;2023-03-05T02:00:49;0.30;99.90
41882;DHT22;27562;47.524;12.404;2023-03-05T02:03:15;0.40;99.90
41882;DHT22;27562;47.524;12.404;2023-03-05T02:05:41;0.40;99.90
41882;DHT22;27562;47.524;12.404;2023-03-05T02:08:10;0.40;99.90
41882;DHT22;27562;47.524;12.404;2023-03-05T02:10:38;0.40;99.90
41882;DHT22;27562;47.524;12.404;2023-03-05T02:13:06;0.40;99.90
41882;DHT22;27562;47.524;12.404;2023-03-05T02:15:32;0.50;99.90
41882;DHT22;27562;47.524;12.404;2023-03-05T02:17:58;0.50;99.90
41882;DHT22;27562;47.524;12.404;2023-03-05T02:20:27;0.40;99.90
41882;DHT22;27562;47.524;12.404;2023-03-05T02:22:53;0.40;99.90
41882;DHT22;27562;47.524;12.404;2023-03-05T02:25:23;0.40;99.90
41882;DHT22;27562;47.524;12.404;2023-03-05T02:27:57;0.40;99.90
41882;DHT22;27562;47.524;12.404;2023-03-05T02:30:25;0.40;99.90
41882;DHT22;27562;47.524;12.404;2023-03-05T02:32:51;0.40;99.90
41882;DHT22;27562;47.524;12.404;2023-03-05T02:35:16;0.40;99.90
41882;DHT22;27562;47.524;12.404;2023-03-05T02:37:42;0.40;99.90
41882;DHT22;27562;47.524;12.404;2023-03-05T02:40:08;0.30;99.90
41882;DHT22;27562;47.524;12.404;2023-03-05T02:42:34;0.30;99.90
41882;DHT22;27562;47.524;12.404;2023-03-05T02:45:00;0.30;99.90
41882;DHT22;27562;47.524;12.404;2023-03-05T02:47:26;0.30;99.90
41882;DHT22;27562;47.524;12.404;2023-03-05T02:49:52;0.40;99.90
41882;DHT22;27562;47.524;12.404;2023-03-05T02:52:17;0.50;99.90
41882;DHT22;27562;47.524;12.404;2023-03-05T02:54:44;0.50;99.90
41882;DHT22;27562;47.524;12.404;2023-03-05T02:57:09;0.50;99.90
41882;DHT22;27562;47.524;12.404;2023-03-05T02:59:35;0.40;99.90
41882;DHT22;27562;47.524;12.404;2023-03-05T03:02:00;0.40;99.90
41882;DHT22;27562;47.524;12.404;2023-03-05T03:04:26;0.40;99.90
41882;DHT22;27562;47.524;12.404;2023-03-05T03:06:52;0.30;99.90
41882;DHT22;27562;47.524;12.404;2023-03-05T03:09:17;0.30;99.90
41882;DHT22;27562;47.524;12.404;2023-03-05T03:11:43;0.30;99.90
41882;DHT22;27562;47.524;12.404;2023-03-05T03:14:09;0.20;99.90
41882;DHT22;27562;47.524;12.404;2023-03-05T03:16:34;0.30;99.90
41882;DHT22;27562;47.524;12.404;2023-03-05T03:19:00;0.30;99.90
41882;DHT22;27562;47.524;12.404;2023-03-05T03:21:25;0.40;99.90
41882;DHT22;27562;47.524;12.404;2023-03-05T03:23:51;0.40;99.90
41882;DHT22;27562;47.524;12.404;2023-03-05T03:26:17;0.40;99.90
41882;DHT22;27562;47.524;12.404;2023-03-05T03:28:43;0.40;99.90
41882;DHT22;27562;47.524;12.404;2023-03-05T03:31:09;0.50;99.90
41882;DHT22;27562;47.524;12.404;2023-03-05T03:33:34;0.50;99.90
41882;DHT22;27562;47.524;12.404;2023-03-05T03:36:00;0.50;99.90
41882;DHT22;27562;47.524;12.404;2023-03-05T03:38:26;0.50;99.90
41882;DHT22;27562;47.524;12.404;2023-03-05T03:40:51;0.40;99.90
41882;DHT22;27562;47.524;12.404;2023-03-05T03:43:17;0.40;99.90
41882;DHT22;27562;47.524;12.404;2023-03-05T03:45:43;0.40;99.90
41882;DHT22;27562;47.524;12.404;2023-03-05T03:48:09;0.30;99.90
41882;DHT22;27562;47.524;12.404;2023-03-05T03:50:38;0.30;99.90
41882;DHT22;27562;47.524;12.404;2023-03-05T03:53:04;0.30;99.90
41882;DHT22;27562;47.524;12.404;2023-03-05T03:55:29;0.30;99.90
41882;DHT22;27562;47.524;12.404;2023-03-05T03:57:55;0.30;99.90
41882;DHT22;27562;47.524;12.404;2023-03-05T04:00:21;0.30;99.90
41882;DHT22;27562;47.524;12.404;2023-03-05T04:02:46;0.30;99.90
41882;DHT22;27562;47.524;12.404;2023-03-05T04:05:12;0.30;99.90
41882;DHT22;27562;47.524;12.404;2023-03-05T04:07:38;0.30;99.90
41882;DHT22;27562;47.524;12.404;2023-03-05T04:10:03;0.20;99.90
41882;DHT22;27562;47.524;12.404;2023-03-05T04:12:30;0.20;99.90
41882;DHT22;27562;47.524;12.404;2023-03-05T04:14:56;0.20;99.90
41882;DHT22;27562;47.524;12.404;2023-03-05T04:17:22;0.30;99.90
41882;DHT22;27562;47.524;12.404;2023-03-05T04:19:47;0.30;99.90
41882;DHT22;27562;47.524;12.404;2023-03-05T04:22:14;0.30;99.90
41882;DHT22;27562;47.524;12.404;2023-03-05T04:24:40;0.40;99.90
41882;DHT22;27562;47.524;12.404;2023-03-05T04:27:06;0.40;99.90
41882;DHT22;27562;47.524;12.404;2023-03-05T04:29:32;0.40;99.90
41882;DHT22;27562;47.524;12.404;2023-03-05T04:31:58;0.40;99.90
41882;DHT22;27562;47.524;12.404;2023-03-05T04:34:23;0.40;99.90
41882;DHT22;27562;47.524;12.404;2023-03-05T04:36:49;0.40;99.90
41882;DHT22;27562;47.524;12.404;2023-03-05T04:39:15;0.40;99.90
41882;DHT22;27562;47.524;12.404;2023-03-05T04:41:40;0.40;99.90
41882;DHT22;27562;47.524;12.404;2023-03-05T04:44:06;0.30;99.90
41882;DHT22;27562;47.524;12.404;2023-03-05T04:46:32;0.30;99.90
41882;DHT22;27562;47.524;12.404;2023-03-05T04:48:58;0.30;99.90
41882;DHT22;27562;47.524;12.404;2023-03-05T04:51:23;0.30;99.90
41882;DHT22;27562;47.524;12.404;2023-03-05T04:53:49;0.30;99.90
41882;DHT22;27562;47.524;12.404;2023-03-05T04:56:15;0.20;99.90
41882;DHT22;27562;47.524;12.404;2023-03-05T04:58:40;0.20;99.90
41882;DHT22;27562;47.524;12.404;2023-03-05T05:01:06;0.20;99.90
41882;DHT22;27562;47.524;12.404;2023-03-05T05:03:32;0.20;99.90
41882;DHT22;27562;47.524;12.404;2023-03-05T05:05:58;0.20;99.90
41882;DHT22;27562;47.524;12.404;2023-03-05T05:08:24;0.30;99.90
41882;DHT22;27562;47.524;12.404;2023-03-05T05:11:09;0.30;99.90
41882;DHT22;27562;47.524;12.404;2023-03-05T05:13:37;0.30;99.90
41882;DHT22;27562;47.524;12.404;2023-03-05T05:16:04;0.20;99.90
41882;DHT22;27562;47.524;12.404;2023-03-05T05:18:30;0.20;99.90
41882;DHT22;27562;47.524;12.404;2023-03-05T05:20:55;0.20;99.90
41882;DHT22;27562;47.524;12.404;2023-03-05T05:23:21;0.20;99.90
41882;DHT22;27562;47.524;12.404;2023-03-05T05:25:54;0.20;99.90
41882;DHT22;27562;47.524;12.404;2023-03-05T05:28:20;0.10;99.90
41882;DHT22;27562;47.524;12.404;2023-03-05T05:30:45;0.10;99.90
41882;DHT22;27562;47.524;12.404;2023-03-05T05:33:11;0.10;99.90
41882;DHT22;27562;47.524;12.404;2023-03-05T05:35:38;0.10;99.90
41882;DHT22;27562;47.524;12.404;2023-03-05T05:38:03;0.10;99.90
41882;DHT22;27562;47.524;12.404;2023-03-05T05:40:29;0.10;99.90
41882;DHT22;27562;47.524;12.404;2023-03-05T05:42:55;0.00;99.90
41882;DHT22;27562;47.524;12.404;2023-03-05T05:45:20;0.00;99.90
41882;DHT22;27562;47.524;12.404;2023-03-05T05:47:46;0.00;99.90
41882;DHT22;27562;47.524;12.404;2023-03-05T05:50:11;0.00;99.90
41882;DHT22;27562;47.524;12.404;2023-03-05T05:52:37;0.00;99.90
41882;DHT22;27562;47.524;12.404;2023-03-05T05:55:03;0.00;99.90
41882;DHT22;27562;47.524;12.404;2023-03-05T05:57:28;0.00;99.90
41882;DHT22;27562;47.524;12.404;2023-03-05T05:59:54;0.00;99.90
41882;DHT22;27562;47.524;12.404;2023-03-05T06:02:19;-0.10;99.90
41882;DHT22;27562;47.524;12.404;2023-03-05T06:04:45;-0.10;99.90
41882;DHT22;27562;47.524;12.404;2023-03-05T06:07:11;-0.10;99.90
41882;DHT22;27562;47.524;12.404;2023-03-05T06:09:36;-0.10;99.90
41882;DHT22;27562;47.524;12.404;2023-03-05T06:12:02;0.00;99.90
41882;DHT22;27562;47.524;12.404;2023-03-05T06:14:28;-0.10;99.90
41882;DHT22;27562;47.524;12.404;2023-03-05T06:16:53;0.00;99.90
41882;DHT22;27562;47.524;12.404;2023-03-05T06:19:19;0.00;99.90
41882;DHT22;27562;47.524;12.404;2023-03-05T06:21:44;0.00;99.90
41882;DHT22;27562;47.524;12.404;2023-03-05T06:24:10;0.00;99.90
41882;DHT22;27562;47.524;12.404;2023-03-05T06:26:36;0.10;99.90
41882;DHT22;27562;47.524;12.404;2023-03-05T06:29:02;0.10;99.90
41882;DHT22;27562;47.524;12.404;2023-03-05T06:31:28;0.00;99.90
41882;DHT22;27562;47.524;12.404;2023-03-05T06:33:54;0.00;99.90
41882;DHT22;27562;47.524;12.404;2023-03-05T06:36:21;0.00;99.90
41882;DHT22;27562;47.524;12.404;2023-03-05T06:38:47;0.00;99.90
41882;DHT22;27562;47.524;12.404;2023-03-05T06:41:14;0.10;99.90
41882;DHT22;27562;47.524;12.404;2023-03-05T06:43:41;0.10;99.90
41882;DHT22;27562;47.524;12.404;2023-03-05T06:46:08;0.20;99.90
41882;DHT22;27562;47.524;12.404;2023-03-05T06:48:35;0.20;99.90
41882;DHT22;27562;47.524;12.404;2023-03-05T06:51:01;0.30;99.90
41882;DHT22;27562;47.524;12.404;2023-03-05T06:53:26;0.30;99.90
41882;DHT22;27562;47.524;12.404;2023-03-05T06:55:53;0.30;99.90
41882;DHT22;27562;47.524;12.404;2023-03-05T06:58:19;0.40;99.90
41882;DHT22;27562;47.524;12.404;2023-03-05T07:00:45;0.40;99.90
41882;DHT22;27562;47.524;12.404;2023-03-05T07:03:11;0.40;99.90
41882;DHT22;27562;47.524;12.404;2023-03-05T07:05:37;0.50;99.90
41882;DHT22;27562;47.524;12.404;2023-03-05T07:08:03;0.50;99.90
41882;DHT22;27562;47.524;12.404;2023-03-05T07:10:29;0.60;99.90
41882;DHT22;27562;47.524;12.404;2023-03-05T07:12:54;0.60;99.90
41882;DHT22;27562;47.524;12.404;2023-03-05T07:15:20;0.60;99.90
41882;DHT22;27562;47.524;12.404;2023-03-05T07:17:46;0.60;99.90
41882;DHT22;27562;47.524;12.404;2023-03-05T07:20:12;0.60;99.90
41882;DHT22;27562;47.524;12.404;2023-03-05T07:22:38;0.70;99.90
41882;DHT22;27562;47.524;12.404;2023-03-05T07:25:04;0.70;99.90
41882;DHT22;27562;47.524;12.404;2023-03-05T07:27:33;0.70;99.90
41882;DHT22;27562;47.524;12.404;2023-03-05T07:29:58;0.80;99.90
41882;DHT22;27562;47.524;12.404;2023-03-05T07:32:24;0.90;99.90
41882;DHT22;27562;47.524;12.404;2023-03-05T07:34:49;1.00;99.90
41882;DHT22;27562;47.524;12.404;2023-03-05T07:37:15;1.00;99.90
41882;DHT22;27562;47.524;12.404;2023-03-05T07:39:41;1.10;99.90
41882;DHT22;27562;47.524;12.404;2023-03-05T07:42:07;1.10;99.90
41882;DHT22;27562;47.524;12.404;2023-03-05T07:44:33;1.20;99.90
41882;DHT22;27562;47.524;12.404;2023-03-05T07:47:05;1.20;99.90
41882;DHT22;27562;47.524;12.404;2023-03-05T07:49:31;1.20;99.90
41882;DHT22;27562;47.524;12.404;2023-03-05T07:51:56;1.20;99.90
41882;DHT22;27562;47.524;12.404;2023-03-05T07:54:22;1.20;99.90
41882;DHT22;27562;47.524;12.404;2023-03-05T07:56:47;1.20;99.90
41882;DHT22;27562;47.524;12.404;2023-03-05T07:59:13;1.30;99.90
41882;DHT22;27562;47.524;12.404;2023-03-05T08:01:39;1.30;99.90
41882;DHT22;27562;47.524;12.404;2023-03-05T08:04:05;1.40;99.90
41882;DHT22;27562;47.524;12.404;2023-03-05T08:06:31;1.40;99.90
41882;DHT22;27562;47.524;12.404;2023-03-05T08:08:57;1.50;99.90
41882;DHT22;27562;47.524;12.404;2023-03-05T08:11:23;1.50;99.90
41882;DHT22;27562;47.524;12.404;2023-03-05T08:13:49;1.60;99.90
41882;DHT22;27562;47.524;12.404;2023-03-05T08:16:16;1.70;99.90
41882;DHT22;27562;47.524;12.404;2023-03-05T08:18:42;1.70;99.90
41882;DHT22;27562;47.524;12.404;2023-03-05T08:21:18;1.80;99.90
41882;DHT22;27562;47.524;12.404;2023-03-05T08:23:44;1.90;99.90
41882;DHT22;27562;47.524;12.404;2023-03-05T08:26:11;2.00;99.90
41882;DHT22;27562;47.524;12.404;2023-03-05T08:28:37;2.00;99.90
41882;DHT22;27562;47.524;12.404;2023-03-05T08:31:07;2.10;99.90
41882;DHT22;27562;47.524;12.404;2023-03-05T08:33:32;2.10;99.90
41882;DHT22;27562;47.524;12.404;2023-03-05T08:35:58;2.10;99.90
41882;DHT22;27562;47.524;12.404;2023-03-05T08:38:23;2.20;99.90
41882;DHT22;27562;47.524;12.404;2023-03-05T08:40:50;2.20;99.90
41882;DHT22;27562;47.524;12.404;2023-03-05T08:43:16;2.20;99.90
41882;DHT22;27562;47.524;12.404;2023-03-05T08:45:41;2.20;99.90
41882;DHT22;27562;47.524;12.404;2023-03-05T08:48:07;2.20;99.90
41882;DHT22;27562;47.524;12.404;2023-03-05T08:50:34;2.30;99.90
41882;DHT22;27562;47.524;12.404;2023-03-05T08:53:00;2.40;99.90
41882;DHT22;27562;47.524;12.404;2023-03-05T08:55:26;2.40;99.90
41882;DHT22;27562;47.524;12.404;2023-03-05T08:57:52;2.50;99.90
41882;DHT22;27562;47.524;12.404;2023-03-05T09:00:18;2.60;99.90
41882;DHT22;27562;47.524;12.404;2023-03-05T09:02:43;2.70;99.90
41882;DHT22;27562;47.524;12.404;2023-03-05T09:05:09;2.80;99.90
41882;DHT22;27562;47.524;12.404;2023-03-05T09:07:35;2.90;99.90
41882;DHT22;27562;47.524;12.404;2023-03-05T09:10:02;3.00;99.90
41882;DHT22;27562;47.524;12.404;2023-03-05T09:12:28;3.10;99.90
41882;DHT22;27562;47.524;12.404;2023-03-05T09:14:54;3.10;99.90
41882;DHT22;27562;47.524;12.404;2023-03-05T09:17:20;3.20;99.90
41882;DHT22;27562;47.524;12.404;2023-03-05T09:19:46;3.30;99.90
41882;DHT22;27562;47.524;12.404;2023-03-05T09:22:12;3.40;99.90
41882;DHT22;27562;47.524;12.404;2023-03-05T09:24:38;3.50;99.90
41882;DHT22;27562;47.524;12.404;2023-03-05T09:27:03;3.50;99.90
41882;DHT22;27562;47.524;12.404;2023-03-05T09:29:29;3.60;99.90
41882;DHT22;27562;47.524;12.404;2023-03-05T09:31:55;3.60;99.90
41882;DHT22;27562;47.524;12.404;2023-03-05T09:34:22;3.70;99.90
41882;DHT22;27562;47.524;12.404;2023-03-05T09:36:48;3.70;99.90
41882;DHT22;27562;47.524;12.404;2023-03-05T09:39:13;3.70;99.90
41882;DHT22;27562;47.524;12.404;2023-03-05T09:44:36;3.80;99.90
41882;DHT22;27562;47.524;12.404;2023-03-05T09:49:33;3.80;99.90
41882;DHT22;27562;47.524;12.404;2023-03-05T09:52:30;3.80;99.90
41882;DHT22;27562;47.524;12.404;2023-03-05T09:54:54;3.90;99.90
41882;DHT22;27562;47.524;12.404;2023-03-05T09:57:21;3.90;99.90
41882;DHT22;27562;47.524;12.404;2023-03-05T10:02:18;4.10;99.90
41882;DHT22;27562;47.524;12.404;2023-03-05T10:07:21;4.30;99.90
41882;DHT22;27562;47.524;12.404;2023-03-05T10:12:17;4.40;99.90
41882;DHT22;27562;47.524;12.404;2023-03-05T10:14:45;4.40;99.90
41882;DHT22;27562;47.524;12.404;2023-03-05T10:27:19;4.40;99.90
41882;DHT22;27562;47.524;12.404;2023-03-05T10:30:06;4.50;99.90
41882;DHT22;27562;47.524;12.404;2023-03-05T10:42:36;4.50;99.90
41882;DHT22;27562;47.524;12.404;2023-03-05T10:45:12;4.60;99.90
41882;DHT22;27562;47.524;12.404;2023-03-05T10:50:11;4.80;99.90
41882;DHT22;27562;47.524;12.404;2023-03-05T10:52:39;4.90;99.90
41882;DHT22;27562;47.524;12.404;2023-03-05T10:55:20;5.00;99.90
41882;DHT22;27562;47.524;12.404;2023-03-05T10:57:46;5.20;99.90
41882;DHT22;27562;47.524;12.404;2023-03-05T11:00:17;5.20;99.90
41882;DHT22;27562;47.524;12.404;2023-03-05T11:03:03;5.30;99.90
41882;DHT22;27562;47.524;12.404;2023-03-05T11:05:32;5.50;99.90
41882;DHT22;27562;47.524;12.404;2023-03-05T11:08:00;5.60;99.90
41882;DHT22;27562;47.524;12.404;2023-03-05T11:10:27;5.80;99.90
41882;DHT22;27562;47.524;12.404;2023-03-05T11:12:53;6.00;99.90
41882;DHT22;27562;47.524;12.404;2023-03-05T11:15:24;6.20;99.90
41882;DHT22;27562;47.524;12.404;2023-03-05T11:20:49;6.40;98.80
41882;DHT22;27562;47.524;12.404;2023-03-05T11:25:50;6.60;98.10
41882;DHT22;27562;47.524;12.404;2023-03-05T11:28:19;6.70;98.40
41882;DHT22;27562;47.524;12.404;2023-03-05T11:30:53;6.70;98.40
41882;DHT22;27562;47.524;12.404;2023-03-05T11:33:20;6.80;97.90
41882;DHT22;27562;47.524;12.404;2023-03-05T11:35:47;7.00;97.30
41882;DHT22;27562;47.524;12.404;2023-03-05T11:38:20;7.10;95.10
41882;DHT22;27562;47.524;12.404;2023-03-05T11:40:49;7.10;96.30
41882;DHT22;27562;47.524;12.404;2023-03-05T11:43:18;7.20;95.70
41882;DHT22;27562;47.524;12.404;2023-03-05T11:45:45;7.30;93.40
41882;DHT22;27562;47.524;12.404;2023-03-05T11:48:14;7.20;94.00
41882;DHT22;27562;47.524;12.404;2023-03-05T11:50:42;7.20;95.30
41882;DHT22;27562;47.524;12.404;2023-03-05T11:55:38;7.30;93.50
41882;DHT22;27562;47.524;12.404;2023-03-05T12:00:48;7.30;92.30
41882;DHT22;27562;47.524;12.404;2023-03-05T12:03:14;7.30;93.80
41882;DHT22;27562;47.524;12.404;2023-03-05T12:05:42;7.20;94.00
41882;DHT22;27562;47.524;12.404;2023-03-05T12:08:10;7.20;94.00
41882;DHT22;27562;47.524;12.404;2023-03-05T12:10:38;7.20;94.50
41882;DHT22;27562;47.524;12.404;2023-03-05T12:13:05;7.30;95.30
41882;DHT22;27562;47.524;12.404;2023-03-05T12:15:41;7.40;94.10
41882;DHT22;27562;47.524;12.404;2023-03-05T12:20:45;7.40;93.80
41882;DHT22;27562;47.524;12.404;2023-03-05T12:23:13;7.40;93.00
41882;DHT22;27562;47.524;12.404;2023-03-05T12:28:13;7.40;93.30
41882;DHT22;27562;47.524;12.404;2023-03-05T12:33:05;7.20;92.50
41882;DHT22;27562;47.524;12.404;2023-03-05T12:35:50;7.10;92.30
41882;DHT22;27562;47.524;12.404;2023-03-05T12:38:17;7.00;92.40
41882;DHT22;27562;47.524;12.404;2023-03-05T12:40:43;7.00;91.70
41882;DHT22;27562;47.524;12.404;2023-03-05T12:46:07;7.00;92.00
41882;DHT22;27562;47.524;12.404;2023-03-05T12:48:42;6.90;91.40
41882;DHT22;27562;47.524;12.404;2023-03-05T12:51:10;6.90;92.80
41882;DHT22;27562;47.524;12.404;2023-03-05T12:53:36;6.90;92.40
41882;DHT22;27562;47.524;12.404;2023-03-05T12:56:05;6.80;92.80
41882;DHT22;27562;47.524;12.404;2023-03-05T13:01:13;6.70;93.20
41882;DHT22;27562;47.524;12.404;2023-03-05T13:06:41;6.80;91.70
41882;DHT22;27562;47.524;12.404;2023-03-05T13:09:15;6.90;92.30
41882;DHT22;27562;47.524;12.404;2023-03-05T13:11:41;7.10;91.70
41882;DHT22;27562;47.524;12.404;2023-03-05T13:16:51;7.30;91.40
41882;DHT22;27562;47.524;12.404;2023-03-05T13:19:17;7.50;90.70
41882;DHT22;27562;47.524;12.404;2023-03-05T13:21:43;7.60;90.40
41882;DHT22;27562;47.524;12.404;2023-03-05T13:24:15;7.60;92.10
41882;DHT22;27562;47.524;12.404;2023-03-05T13:26:41;7.80;91.40
41882;DHT22;27562;47.524;12.404;2023-03-05T13:29:14;7.80;90.50
41882;DHT22;27562;47.524;12.404;2023-03-05T13:31:47;7.80;90.40
41882;DHT22;27562;47.524;12.404;2023-03-05T13:36:44;7.60;88.90
41882;DHT22;27562;47.524;12.404;2023-03-05T13:39:16;7.60;89.70
41882;DHT22;27562;47.524;12.404;2023-03-05T13:41:42;7.50;89.90
41882;DHT22;27562;47.524;12.404;2023-03-05T13:44:19;7.50;90.00
41882;DHT22;27562;47.524;12.404;2023-03-05T13:46:45;7.50;88.50
41882;DHT22;27562;47.524;12.404;2023-03-05T13:49:15;7.50;88.70
41882;DHT22;27562;47.524;12.404;2023-03-05T13:51:42;7.50;90.90
41882;DHT22;27562;47.524;12.404;2023-03-05T13:54:10;7.60;90.50
41882;DHT22;27562;47.524;12.404;2023-03-05T13:56:46;7.70;88.80
41882;DHT22;27562;47.524;12.404;2023-03-05T13:59:16;7.80;86.40
41882;DHT22;27562;47.524;12.404;2023-03-05T14:01:42;7.70;86.40
41882;DHT22;27562;47.524;12.404;2023-03-05T14:09:17;7.50;87.00
41882;DHT22;27562;47.524;12.404;2023-03-05T14:12:20;7.40;88.50
41882;DHT22;27562;47.524;12.404;2023-03-05T14:14:37;7.40;87.50
41882;DHT22;27562;47.524;12.404;2023-03-05T14:19:50;7.20;87.80
41882;DHT22;27562;47.524;12.404;2023-03-05T14:22:33;7.20;86.30
41882;DHT22;27562;47.524;12.404;2023-03-05T14:25:02;7.10;87.80
41882;DHT22;27562;47.524;12.404;2023-03-05T14:27:30;7.10;86.70
41882;DHT22;27562;47.524;12.404;2023-03-05T14:29:57;7.00;86.50
41882;DHT22;27562;47.524;12.404;2023-03-05T14:32:26;6.90;87.70
41882;DHT22;27562;47.524;12.404;2023-03-05T14:34:54;6.90;87.60
41882;DHT22;27562;47.524;12.404;2023-03-05T14:37:39;6.70;89.30
41882;DHT22;27562;47.524;12.404;2023-03-05T14:42:54;6.70;89.10
41882;DHT22;27562;47.524;12.404;2023-03-05T14:45:28;6.70;89.10
41882;DHT22;27562;47.524;12.404;2023-03-05T14:47:54;6.60;90.20
41882;DHT22;27562;47.524;12.404;2023-03-05T14:50:23;6.60;88.40
41882;DHT22;27562;47.524;12.404;2023-03-05T14:52:50;6.60;89.80
41882;DHT22;27562;47.524;12.404;2023-03-05T14:55:18;6.50;90.00
41882;DHT22;27562;47.524;12.404;2023-03-05T14:57:44;6.40;90.40
41882;DHT22;27562;47.524;12.404;2023-03-05T15:00:18;6.40;90.00
41882;DHT22;27562;47.524;12.404;2023-03-05T15:02:44;6.40;90.60
41882;DHT22;27562;47.524;12.404;2023-03-05T15:05:09;6.50;90.00
41882;DHT22;27562;47.524;12.404;2023-03-05T15:07:35;6.50;90.20
41882;DHT22;27562;47.524;12.404;2023-03-05T15:10:01;6.40;90.00
41882;DHT22;27562;47.524;12.404;2023-03-05T15:12:28;6.30;90.20
41882;DHT22;27562;47.524;12.404;2023-03-05T15:14:54;6.20;90.10
41882;DHT22;27562;47.524;12.404;2023-03-05T15:17:21;6.00;90.60
41882;DHT22;27562;47.524;12.404;2023-03-05T15:19:48;5.90;90.80
41882;DHT22;27562;47.524;12.404;2023-03-05T15:22:14;5.80;91.20
41882;DHT22;27562;47.524;12.404;2023-03-05T15:24:40;5.80;91.10
41882;DHT22;27562;47.524;12.404;2023-03-05T15:27:06;5.70;91.60
41882;DHT22;27562;47.524;12.404;2023-03-05T15:29:32;5.60;91.60
41882;DHT22;27562;47.524;12.404;2023-03-05T15:31:58;5.50;91.60
41882;DHT22;27562;47.524;12.404;2023-03-05T15:34:25;5.50;92.10
41882;DHT22;27562;47.524;12.404;2023-03-05T15:36:53;5.40;92.20
41882;DHT22;27562;47.524;12.404;2023-03-05T15:39:21;5.30;92.30
41882;DHT22;27562;47.524;12.404;2023-03-05T15:41:49;5.30;92.50
41882;DHT22;27562;47.524;12.404;2023-03-05T15:44:15;5.30;92.80
41882;DHT22;27562;47.524;12.404;2023-03-05T15:46:41;5.20;92.60
41882;DHT22;27562;47.524;12.404;2023-03-05T15:49:07;5.10;93.20
41882;DHT22;27562;47.524;12.404;2023-03-05T15:51:33;5.00;93.50
41882;DHT22;27562;47.524;12.404;2023-03-05T15:53:59;5.00;93.10
41882;DHT22;27562;47.524;12.404;2023-03-05T15:56:24;5.00;93.50
41882;DHT22;27562;47.524;12.404;2023-03-05T15:58:50;4.90;93.70
41882;DHT22;27562;47.524;12.404;2023-03-05T16:01:17;4.90;93.90
41882;DHT22;27562;47.524;12.404;2023-03-05T16:03:45;4.80;94.10
41882;DHT22;27562;47.524;12.404;2023-03-05T16:06:11;4.80;94.10
41882;DHT22;27562;47.524;12.404;2023-03-05T16:08:39;4.80;93.90
41882;DHT22;27562;47.524;12.404;2023-03-05T16:11:05;4.80;94.00
41882;DHT22;27562;47.524;12.404;2023-03-05T16:13:32;4.80;94.40
41882;DHT22;27562;47.524;12.404;2023-03-05T16:15:58;4.70;94.90
41882;DHT22;27562;47.524;12.404;2023-03-05T16:18:25;4.70;94.90
41882;DHT22;27562;47.524;12.404;2023-03-05T16:20:51;4.60;94.90
41882;DHT22;27562;47.524;12.404;2023-03-05T16:23:17;4.60;94.80
41882;DHT22;27562;47.524;12.404;2023-03-05T16:25:43;4.60;95.30
41882;DHT22;27562;47.524;12.404;2023-03-05T16:28:10;4.50;95.30
41882;DHT22;27562;47.524;12.404;2023-03-05T16:30:36;4.40;95.60
41882;DHT22;27562;47.524;12.404;2023-03-05T16:33:02;4.40;95.70
41882;DHT22;27562;47.524;12.404;2023-03-05T16:35:28;4.40;95.60
41882;DHT22;27562;47.524;12.404;2023-03-05T16:37:55;4.40;95.80
41882;DHT22;27562;47.524;12.404;2023-03-05T16:40:21;4.30;96.00
41882;DHT22;27562;47.524;12.404;2023-03-05T16:42:47;4.20;96.40
41882;DHT22;27562;47.524;12.404;2023-03-05T16:45:13;4.20;96.20
41882;DHT22;27562;47.524;12.404;2023-03-05T16:47:39;4.10;96.50
41882;DHT22;27562;47.524;12.404;2023-03-05T16:50:05;4.00;97.00